Time;durP1;ratioP1;P1;durP2;ratioP2;P2;SDS_P1;SDS_P2;PMS_P1;PMS_P2;Temp;Humidity;BMP_temperature;BMP_pressure;BME280_temperature;BME280_humidity;BME280_pressure;Samples;Min_cycle;Max_cycle;Signal;HPM_P1;HPM_P2
2021/07/18 00:01:52;;;;;;;;;;;19.60;99.90;;;;;;5097235;28;19904;-81
2021/07/18 00:04:17;;;;;;;;;;;19.50;99.90;;;;;;5097544;28;19904;-81
2021/07/18 00:06:43;;;;;;;;;;;19.40;99.90;;;;;;5097131;28;19903;-80
2021/07/18 00:09:09;;;;;;;;;;;19.50;99.90;;;;;;5097188;28;19904;-79
2021/07/18 00:11:34;;;;;;;;;;;19.40;99.90;;;;;;5096947;28;19998;-80
2021/07/18 00:14:00;;;;;;;;;;;19.20;99.90;;;;;;5097110;28;19957;-80
2021/07/18 00:16:25;;;;;;;;;;;19.20;99.90;;;;;;5115430;28;19978;-80
2021/07/18 00:18:51;;;;;;;;;;;19.10;99.90;;;;;;5115344;28;20385;-82
2021/07/18 00:21:16;;;;;;;;;;;19.00;99.90;;;;;;5096856;28;19911;-81
2021/07/18 00:23:42;;;;;;;;;;;19.00;99.90;;;;;;5096732;28;19990;-81
2021/07/18 00:26:07;;;;;;;;;;;19.00;99.90;;;;;;5115018;28;19904;-80
2021/07/18 00:28:33;;;;;;;;;;;19.00;99.90;;;;;;5096916;28;19904;-81
2021/07/18 00:30:58;;;;;;;;;;;19.00;99.90;;;;;;5096751;28;19904;-81
2021/07/18 00:33:24;;;;;;;;;;;19.20;99.90;;;;;;5114808;28;19908;-81
2021/07/18 00:35:49;;;;;;;;;;;19.30;99.90;;;;;;5096459;28;19918;-80
2021/07/18 00:38:15;;;;;;;;;;;19.40;99.90;;;;;;5096779;28;20381;-82
2021/07/18 00:40:40;;;;;;;;;;;19.30;99.90;;;;;;5096604;28;19914;-82
2021/07/18 00:43:06;;;;;;;;;;;19.30;99.90;;;;;;5096250;28;19908;-81
2021/07/18 00:45:31;;;;;;;;;;;19.30;99.90;;;;;;5096133;28;19912;-81
2021/07/18 00:47:57;;;;;;;;;;;19.40;99.90;;;;;;5096358;28;19904;-82
2021/07/18 00:50:22;;;;;;;;;;;19.40;99.90;;;;;;5094518;28;19916;-80
2021/07/18 00:52:48;;;;;;;;;;;19.40;99.90;;;;;;5095920;28;19911;-80
2021/07/18 00:55:14;;;;;;;;;;;19.40;99.90;;;;;;5096056;28;19912;-80
2021/07/18 00:57:42;;;;;;;;;;;19.30;99.90;;;;;;5096115;28;19904;-80
2021/07/18 01:00:08;;;;;;;;;;;19.30;99.90;;;;;;5096386;28;19995;-81
2021/07/18 01:02:35;;;;;;;;;;;19.30;99.90;;;;;;5096008;28;19903;-80
2021/07/18 01:05:00;;;;;;;;;;;19.10;99.90;;;;;;5096177;28;19964;-80
2021/07/18 01:07:26;;;;;;;;;;;19.00;99.90;;;;;;5096013;28;19911;-81
2021/07/18 01:09:52;;;;;;;;;;;18.90;99.90;;;;;;5096015;28;19910;-82
2021/07/18 01:12:17;;;;;;;;;;;18.80;99.90;;;;;;5095669;28;19904;-80
2021/07/18 01:14:43;;;;;;;;;;;18.60;99.90;;;;;;5096091;28;19991;-80
2021/07/18 01:17:09;;;;;;;;;;;18.50;99.90;;;;;;5096132;28;19903;-80
2021/07/18 01:19:34;;;;;;;;;;;18.50;99.90;;;;;;5114088;28;20315;-80
2021/07/18 01:22:02;;;;;;;;;;;18.40;99.90;;;;;;5095573;28;20026;-80
2021/07/18 01:24:28;;;;;;;;;;;18.40;99.90;;;;;;5095530;28;19948;-81
2021/07/18 01:26:54;;;;;;;;;;;18.40;99.90;;;;;;5098872;28;20378;-80
2021/07/18 01:29:20;;;;;;;;;;;18.30;99.90;;;;;;5108199;28;20007;-81
2021/07/18 01:31:45;;;;;;;;;;;18.30;99.90;;;;;;5106811;28;20027;-80
2021/07/18 01:34:11;;;;;;;;;;;18.20;99.90;;;;;;5112351;28;19955;-80
2021/07/18 01:36:37;;;;;;;;;;;18.10;99.90;;;;;;5112730;28;19903;-80
2021/07/18 01:39:06;;;;;;;;;;;18.10;99.90;;;;;;5112695;28;19904;-80
2021/07/18 01:41:31;;;;;;;;;;;18.20;99.90;;;;;;5113827;28;19932;-80
2021/07/18 01:43:57;;;;;;;;;;;18.00;99.90;;;;;;5112213;28;19903;-82
2021/07/18 01:46:22;;;;;;;;;;;17.90;99.90;;;;;;5112324;28;19912;-83
2021/07/18 01:48:52;;;;;;;;;;;17.70;99.90;;;;;;5112362;28;19904;-80
2021/07/18 01:51:24;;;;;;;;;;;17.60;99.90;;;;;;5111899;28;19911;-81
2021/07/18 01:53:53;;;;;;;;;;;17.60;99.90;;;;;;5111566;28;20370;-82
2021/07/18 01:56:19;;;;;;;;;;;17.60;99.90;;;;;;5107160;28;19907;-81
2021/07/18 01:58:46;;;;;;;;;;;17.50;99.90;;;;;;5104009;28;20281;-81
2021/07/18 02:01:11;;;;;;;;;;;17.60;99.90;;;;;;5103565;28;19915;-81
2021/07/18 02:03:36;;;;;;;;;;;17.60;99.90;;;;;;5112067;28;19907;-80
2021/07/18 02:06:02;;;;;;;;;;;17.40;99.90;;;;;;5111946;28;20007;-81
2021/07/18 02:08:27;;;;;;;;;;;17.30;99.90;;;;;;5112075;28;19904;-81
2021/07/18 02:10:53;;;;;;;;;;;17.30;99.90;;;;;;5111990;28;19903;-81
2021/07/18 02:13:18;;;;;;;;;;;17.10;99.90;;;;;;5111598;28;20358;-80
2021/07/18 02:15:44;;;;;;;;;;;17.10;99.90;;;;;;5112012;28;19904;-81
2021/07/18 02:18:10;;;;;;;;;;;17.10;99.90;;;;;;5113324;28;20298;-82
2021/07/18 02:20:35;;;;;;;;;;;17.00;99.90;;;;;;5111962;28;19908;-81
2021/07/18 02:23:01;;;;;;;;;;;17.00;99.90;;;;;;5111242;28;20289;-81
2021/07/18 02:25:26;;;;;;;;;;;17.00;99.90;;;;;;5111566;28;19910;-79
2021/07/18 02:27:52;;;;;;;;;;;17.00;99.90;;;;;;5108160;28;20329;-80
2021/07/18 02:30:19;;;;;;;;;;;17.10;99.90;;;;;;5112931;28;19903;-81
2021/07/18 02:32:45;;;;;;;;;;;17.20;99.90;;;;;;5111542;28;19922;-79
2021/07/18 02:35:11;;;;;;;;;;;17.20;99.90;;;;;;5113116;28;19903;-82
2021/07/18 02:37:37;;;;;;;;;;;17.20;99.90;;;;;;5112011;28;19904;-80
2021/07/18 02:40:03;;;;;;;;;;;17.20;99.90;;;;;;5111779;28;20363;-80
2021/07/18 02:42:29;;;;;;;;;;;17.20;99.90;;;;;;5111681;28;19908;-80
2021/07/18 02:44:55;;;;;;;;;;;17.20;99.90;;;;;;5111659;28;19911;-80
2021/07/18 02:47:20;;;;;;;;;;;17.30;99.90;;;;;;5111741;28;19919;-81
2021/07/18 02:49:46;;;;;;;;;;;17.20;99.90;;;;;;5111907;28;19911;-80
2021/07/18 02:52:12;;;;;;;;;;;17.20;99.90;;;;;;5111451;28;19907;-80
2021/07/18 02:54:37;;;;;;;;;;;17.20;99.90;;;;;;5110892;28;20434;-80
2021/07/18 02:57:03;;;;;;;;;;;17.10;99.90;;;;;;5112778;28;20394;-82
2021/07/18 02:59:28;;;;;;;;;;;17.10;99.90;;;;;;5112703;28;19904;-81
2021/07/18 03:01:55;;;;;;;;;;;17.00;99.90;;;;;;5111423;28;19957;-79
2021/07/18 03:04:21;;;;;;;;;;;17.10;99.90;;;;;;5113072;28;19910;-79
2021/07/18 03:06:46;;;;;;;;;;;17.10;99.90;;;;;;5111647;28;19908;-79
2021/07/18 03:09:12;;;;;;;;;;;17.10;99.90;;;;;;5114125;28;19998;-79
2021/07/18 03:11:37;;;;;;;;;;;17.20;99.90;;;;;;5116580;28;19904;-80
2021/07/18 03:14:03;;;;;;;;;;;17.10;99.90;;;;;;5115156;28;19907;-80
2021/07/18 03:16:28;;;;;;;;;;;17.00;99.90;;;;;;5115346;28;19915;-79
2021/07/18 03:18:53;;;;;;;;;;;17.00;99.90;;;;;;5115448;28;20445;-79
2021/07/18 03:21:19;;;;;;;;;;;17.00;99.90;;;;;;5116238;28;19911;-77
2021/07/18 03:23:44;;;;;;;;;;;16.90;99.90;;;;;;5114450;28;19910;-77
2021/07/18 03:26:10;;;;;;;;;;;16.90;99.90;;;;;;5115013;28;19911;-79
2021/07/18 03:28:35;;;;;;;;;;;17.00;99.90;;;;;;5115068;28;19904;-77
2021/07/18 03:31:01;;;;;;;;;;;17.00;99.90;;;;;;5115050;28;19904;-79
2021/07/18 03:33:26;;;;;;;;;;;17.00;99.90;;;;;;5114818;28;19907;-82
2021/07/18 03:35:52;;;;;;;;;;;17.00;99.90;;;;;;5116125;28;19958;-80
2021/07/18 03:38:18;;;;;;;;;;;17.00;99.90;;;;;;5115099;28;19911;-79
2021/07/18 03:40:44;;;;;;;;;;;17.00;99.90;;;;;;5114797;28;20377;-77
2021/07/18 03:43:09;;;;;;;;;;;17.00;99.90;;;;;;5114518;28;19904;-80
2021/07/18 03:45:34;;;;;;;;;;;17.00;99.90;;;;;;5114768;28;20445;-81
2021/07/18 03:48:00;;;;;;;;;;;17.00;99.90;;;;;;5114846;28;19903;-79
2021/07/18 03:50:25;;;;;;;;;;;17.10;99.90;;;;;;5116073;28;19904;-79
2021/07/18 03:52:51;;;;;;;;;;;17.10;99.90;;;;;;5114716;28;20370;-81
2021/07/18 03:55:17;;;;;;;;;;;17.10;99.90;;;;;;5114436;28;19911;-81
2021/07/18 03:57:43;;;;;;;;;;;17.20;99.90;;;;;;5114216;28;19921;-77
2021/07/18 04:00:08;;;;;;;;;;;17.20;99.90;;;;;;5115753;28;20002;-81
2021/07/18 04:02:34;;;;;;;;;;;17.20;99.90;;;;;;5114266;28;19904;-77
2021/07/18 04:04:59;;;;;;;;;;;17.20;99.90;;;;;;5115804;28;19911;-80
2021/07/18 04:07:25;;;;;;;;;;;17.20;99.90;;;;;;5114557;28;19911;-79
2021/07/18 04:09:51;;;;;;;;;;;17.20;99.90;;;;;;5115568;27;19904;-79
2021/07/18 04:12:16;;;;;;;;;;;17.10;99.90;;;;;;5114202;28;19910;-79
2021/07/18 04:14:42;;;;;;;;;;;17.00;99.90;;;;;;5115295;28;19955;-81
2021/07/18 04:17:07;;;;;;;;;;;17.10;99.90;;;;;;5114380;28;19904;-78
2021/07/18 04:19:32;;;;;;;;;;;17.20;99.90;;;;;;5114224;28;19903;-79
2021/07/18 04:21:58;;;;;;;;;;;17.10;99.90;;;;;;5113093;28;20354;-77
2021/07/18 04:24:24;;;;;;;;;;;17.20;99.90;;;;;;5114661;28;20350;-81
2021/07/18 04:26:49;;;;;;;;;;;17.20;99.90;;;;;;5113982;28;20020;-79
2021/07/18 04:29:15;;;;;;;;;;;17.20;99.90;;;;;;5113921;28;19908;-79
2021/07/18 04:31:40;;;;;;;;;;;17.20;99.90;;;;;;5114834;28;19904;-79
2021/07/18 04:34:05;;;;;;;;;;;17.30;99.90;;;;;;5112262;28;19911;-79
2021/07/18 04:36:31;;;;;;;;;;;17.40;99.90;;;;;;5089283;28;19908;-77
2021/07/18 04:38:58;;;;;;;;;;;17.40;99.90;;;;;;5096810;28;19904;-79
2021/07/18 04:41:23;;;;;;;;;;;17.40;99.90;;;;;;5096774;28;20286;-80
2021/07/18 04:43:49;;;;;;;;;;;17.40;99.90;;;;;;5113295;28;19904;-79
2021/07/18 04:46:14;;;;;;;;;;;17.40;99.90;;;;;;5094778;28;19912;-81
2021/07/18 04:48:40;;;;;;;;;;;17.40;99.90;;;;;;5092086;28;19990;-79
2021/07/18 04:51:06;;;;;;;;;;;17.60;99.90;;;;;;5075534;28;19904;-79
2021/07/18 04:53:31;;;;;;;;;;;17.50;99.90;;;;;;5100847;28;20275;-79
2021/07/18 04:55:58;;;;;;;;;;;17.50;99.90;;;;;;5083543;28;19994;-82
2021/07/18 04:58:24;;;;;;;;;;;17.70;99.90;;;;;;5086384;28;20363;-79
2021/07/18 05:00:50;;;;;;;;;;;17.70;99.90;;;;;;5083967;28;19907;-79
2021/07/18 05:03:15;;;;;;;;;;;17.70;99.90;;;;;;5085576;28;19961;-80
2021/07/18 05:05:41;;;;;;;;;;;17.80;99.90;;;;;;5104106;28;20371;-81
2021/07/18 05:08:06;;;;;;;;;;;17.80;99.90;;;;;;5085064;28;19904;-80
2021/07/18 05:10:31;;;;;;;;;;;17.90;99.90;;;;;;5086428;28;20331;-79
2021/07/18 05:12:57;;;;;;;;;;;18.00;99.90;;;;;;5080058;28;19935;-81
2021/07/18 05:15:24;;;;;;;;;;;18.10;99.90;;;;;;5102602;28;19948;-79
2021/07/18 05:17:49;;;;;;;;;;;18.20;99.90;;;;;;5079476;28;20018;-81
2021/07/18 05:20:16;;;;;;;;;;;18.30;99.90;;;;;;5106022;28;19953;-79
2021/07/18 05:22:41;;;;;;;;;;;18.30;99.90;;;;;;5110776;28;19908;-82
2021/07/18 05:25:08;;;;;;;;;;;18.30;99.90;;;;;;5111588;28;19910;-79
2021/07/18 05:27:33;;;;;;;;;;;18.40;99.90;;;;;;5111769;28;19904;-79
2021/07/18 05:29:59;;;;;;;;;;;18.50;99.90;;;;;;5111340;28;20381;-80
2021/07/18 05:32:24;;;;;;;;;;;18.50;99.90;;;;;;5101123;28;19903;-78
2021/07/18 05:34:50;;;;;;;;;;;18.70;99.90;;;;;;5093921;28;19914;-82
2021/07/18 05:37:15;;;;;;;;;;;18.70;99.90;;;;;;5112704;28;19907;-80
2021/07/18 05:39:41;;;;;;;;;;;18.80;99.90;;;;;;5095302;28;20568;-81
2021/07/18 05:42:06;;;;;;;;;;;18.90;99.90;;;;;;5094658;28;19957;-81
2021/07/18 05:44:32;;;;;;;;;;;19.10;99.90;;;;;;5094883;28;19907;-81
2021/07/18 05:46:57;;;;;;;;;;;19.10;99.90;;;;;;5095336;28;19935;-82
2021/07/18 05:49:23;;;;;;;;;;;19.30;99.90;;;;;;5095416;28;20355;-81
2021/07/18 05:51:49;;;;;;;;;;;19.40;99.90;;;;;;5095287;28;19907;-80
2021/07/18 05:54:14;;;;;;;;;;;19.50;99.90;;;;;;5095756;28;19915;-80
2021/07/18 05:56:39;;;;;;;;;;;19.70;99.90;;;;;;5096112;28;20414;-82
2021/07/18 05:59:05;;;;;;;;;;;19.90;99.90;;;;;;5113299;28;19911;-82
2021/07/18 06:01:30;;;;;;;;;;;19.90;99.90;;;;;;5086996;28;20048;-82
2021/07/18 06:03:56;;;;;;;;;;;20.00;99.90;;;;;;5085716;28;19908;-83
2021/07/18 06:06:21;;;;;;;;;;;20.30;99.90;;;;;;5075246;28;19912;-82
2021/07/18 06:08:47;;;;;;;;;;;20.70;99.90;;;;;;5085828;28;19915;-80
2021/07/18 06:11:13;;;;;;;;;;;20.80;99.90;;;;;;5105493;28;20020;-81
2021/07/18 06:13:38;;;;;;;;;;;20.60;99.90;;;;;;5082820;28;19919;-84
2021/07/18 06:16:04;;;;;;;;;;;20.50;99.90;;;;;;5096004;28;19988;-81
2021/07/18 06:18:29;;;;;;;;;;;20.80;99.90;;;;;;5096210;28;20002;-85
2021/07/18 06:20:55;;;;;;;;;;;21.10;99.90;;;;;;5114371;28;20278;-81
2021/07/18 06:23:20;;;;;;;;;;;21.20;99.90;;;;;;5095473;28;19959;-83
2021/07/18 06:25:46;;;;;;;;;;;21.30;99.90;;;;;;5096749;28;19904;-83
2021/07/18 06:28:11;;;;;;;;;;;21.50;99.90;;;;;;5096193;28;19953;-81
2021/07/18 06:30:37;;;;;;;;;;;21.40;99.90;;;;;;5095725;28;19953;-83
2021/07/18 06:33:02;;;;;;;;;;;21.60;99.90;;;;;;5094598;28;19908;-83
2021/07/18 06:35:28;;;;;;;;;;;21.50;99.90;;;;;;5092545;28;19968;-82
2021/07/18 06:37:53;;;;;;;;;;;21.80;99.90;;;;;;5093784;28;19911;-83
2021/07/18 06:40:19;;;;;;;;;;;22.20;99.90;;;;;;5096385;28;19911;-81
2021/07/18 06:42:44;;;;;;;;;;;22.20;99.90;;;;;;5095743;28;20384;-81
2021/07/18 06:45:10;;;;;;;;;;;22.10;99.90;;;;;;5078492;28;19951;-82
2021/07/18 06:47:36;;;;;;;;;;;22.00;99.90;;;;;;5079074;28;19908;-81
2021/07/18 06:50:02;;;;;;;;;;;22.20;99.90;;;;;;5080371;28;20339;-82
2021/07/18 06:52:27;;;;;;;;;;;22.60;99.90;;;;;;5080834;28;19910;-82
2021/07/18 06:54:53;;;;;;;;;;;23.00;99.90;;;;;;5082541;28;19912;-82
2021/07/18 06:57:19;;;;;;;;;;;22.70;99.90;;;;;;5090643;28;19908;-83
2021/07/18 06:59:46;;;;;;;;;;;22.50;99.90;;;;;;5089442;28;19912;-85
2021/07/18 07:02:11;;;;;;;;;;;22.60;99.90;;;;;;5101110;28;19910;-85
2021/07/18 07:04:37;;;;;;;;;;;22.40;99.90;;;;;;5102475;28;19904;-83
2021/07/18 07:07:03;;;;;;;;;;;22.50;99.90;;;;;;5102571;28;20377;-81
2021/07/18 07:09:28;;;;;;;;;;;22.60;99.90;;;;;;5102025;28;20382;-81
2021/07/18 07:11:53;;;;;;;;;;;22.80;99.90;;;;;;5101893;28;19903;-84
2021/07/18 07:14:19;;;;;;;;;;;22.60;99.90;;;;;;5101684;28;19953;-84
2021/07/18 07:16:44;;;;;;;;;;;22.60;99.90;;;;;;5102736;28;19954;-80
2021/07/18 07:19:12;;;;;;;;;;;22.70;99.90;;;;;;5120840;28;19903;-84
2021/07/18 07:21:38;;;;;;;;;;;23.20;99.90;;;;;;5102236;28;20242;-82
2021/07/18 07:24:04;;;;;;;;;;;23.50;99.90;;;;;;5120775;28;19966;-81
2021/07/18 07:26:29;;;;;;;;;;;23.20;99.90;;;;;;5101634;28;19907;-80
2021/07/18 07:28:55;;;;;;;;;;;23.40;99.90;;;;;;5100973;28;19904;-84
2021/07/18 07:31:20;;;;;;;;;;;23.60;99.90;;;;;;5095461;28;19904;-84
2021/07/18 07:33:46;;;;;;;;;;;23.70;99.90;;;;;;5088326;28;19912;-84
2021/07/18 07:36:11;;;;;;;;;;;24.10;99.90;;;;;;5082108;28;19916;-81
2021/07/18 07:38:37;;;;;;;;;;;24.10;99.90;;;;;;5080258;28;19969;-81
2021/07/18 07:41:02;;;;;;;;;;;24.20;99.90;;;;;;5080185;28;19915;-82
2021/07/18 07:43:28;;;;;;;;;;;23.90;99.90;;;;;;5080024;28;20428;-85
2021/07/18 07:45:54;;;;;;;;;;;24.20;99.90;;;;;;5079248;28;19912;-86
2021/07/18 07:48:20;;;;;;;;;;;24.00;99.90;;;;;;5079999;28;20355;-84
2021/07/18 07:50:46;;;;;;;;;;;23.90;99.90;;;;;;5079521;28;19904;-81
2021/07/18 07:53:11;;;;;;;;;;;23.90;99.90;;;;;;5079203;28;19908;-84
2021/07/18 07:55:36;;;;;;;;;;;23.70;99.90;;;;;;5078445;28;19908;-84
2021/07/18 07:58:03;;;;;;;;;;;23.90;99.90;;;;;;5079488;28;20389;-81
2021/07/18 08:00:29;;;;;;;;;;;24.40;99.90;;;;;;5078886;28;19904;-85
2021/07/18 08:02:54;;;;;;;;;;;24.60;99.90;;;;;;5078937;28;20007;-84
2021/07/18 08:05:20;;;;;;;;;;;25.10;99.90;;;;;;5087020;28;19914;-81
2021/07/18 08:07:46;;;;;;;;;;;25.20;99.90;;;;;;5088662;28;19907;-81
2021/07/18 08:10:13;;;;;;;;;;;24.50;99.90;;;;;;5084294;28;19914;-83
2021/07/18 08:12:39;;;;;;;;;;;24.60;99.90;;;;;;5079266;28;20381;-84
2021/07/18 08:15:05;;;;;;;;;;;25.10;99.90;;;;;;5078275;28;19971;-84
2021/07/18 08:17:31;;;;;;;;;;;25.00;99.90;;;;;;5079324;28;19908;-82
2021/07/18 08:19:56;;;;;;;;;;;24.70;99.90;;;;;;5079412;28;19998;-83
2021/07/18 08:22:22;;;;;;;;;;;24.90;99.90;;;;;;5078543;28;19990;-85
2021/07/18 08:24:48;;;;;;;;;;;24.80;99.90;;;;;;5097422;28;20386;-84
2021/07/18 08:27:13;;;;;;;;;;;24.40;99.90;;;;;;5078974;28;19914;-85
2021/07/18 08:29:39;;;;;;;;;;;24.50;99.90;;;;;;5097622;28;20302;-82
2021/07/18 08:32:05;;;;;;;;;;;24.50;99.90;;;;;;5078628;28;19908;-83
2021/07/18 08:34:31;;;;;;;;;;;24.90;99.90;;;;;;5078364;28;19920;-82
2021/07/18 08:36:57;;;;;;;;;;;25.60;99.90;;;;;;5078551;28;19908;-85
2021/07/18 08:39:23;;;;;;;;;;;25.80;99.90;;;;;;5079143;28;19912;-83
2021/07/18 08:41:50;;;;;;;;;;;25.20;99.90;;;;;;5078384;28;19931;-83
2021/07/18 08:44:16;;;;;;;;;;;25.20;99.90;;;;;;5078434;28;19915;-83
2021/07/18 08:46:42;;;;;;;;;;;25.30;99.90;;;;;;5080327;28;19924;-82
2021/07/18 08:49:10;;;;;;;;;;;25.80;99.90;;;;;;5089063;28;19907;-85
2021/07/18 08:51:36;;;;;;;;;;;25.70;99.90;;;;;;5093779;28;19918;-83
2021/07/18 08:54:02;;;;;;;;;;;25.60;99.90;;;;;;5098626;28;19912;-85
2021/07/18 08:56:31;;;;;;;;;;;25.40;99.90;;;;;;5098128;28;19908;-81
2021/07/18 08:58:57;;;;;;;;;;;25.70;99.90;;;;;;5117193;28;19958;-81
2021/07/18 09:01:22;;;;;;;;;;;25.90;99.90;;;;;;5098865;28;20302;-85
2021/07/18 09:03:48;;;;;;;;;;;26.10;99.90;;;;;;5098249;28;19908;-81
2021/07/18 09:06:13;;;;;;;;;;;26.00;99.90;;;;;;5098561;28;19915;-83
2021/07/18 09:08:43;;;;;;;;;;;26.20;99.90;;;;;;5097907;28;19915;-83
2021/07/18 09:11:22;;;;;;;;;;;26.20;99.90;;;;;;5098543;28;19908;-83
2021/07/18 09:13:54;;;;;;;;;;;26.10;99.90;;;;;;5116463;28;19916;-83
2021/07/18 09:16:24;;;;;;;;;;;26.30;99.90;;;;;;5098354;28;20378;-82
2021/07/18 09:18:50;;;;;;;;;;;26.40;99.90;;;;;;5097818;28;19908;-85
2021/07/18 09:21:15;;;;;;;;;;;26.50;99.90;;;;;;5098201;28;19914;-82
2021/07/18 09:23:41;;;;;;;;;;;26.40;99.90;;;;;;5098188;28;19998;-82
2021/07/18 09:26:20;;;;;;;;;;;26.30;99.90;;;;;;5099839;28;19908;-84
2021/07/18 09:28:46;;;;;;;;;;;26.70;99.90;;;;;;5099362;28;19908;-84
2021/07/18 09:31:27;;;;;;;;;;;26.90;99.90;;;;;;5098758;28;19912;-83
2021/07/18 09:34:13;;;;;;;;;;;26.60;99.90;;;;;;5096278;28;19918;-85
2021/07/18 09:36:38;;;;;;;;;;;26.70;99.90;;;;;;5084591;28;19916;-81
2021/07/18 09:39:05;;;;;;;;;;;26.70;99.90;;;;;;5082921;28;19908;-85
2021/07/18 09:41:37;;;;;;;;;;;26.90;99.90;;;;;;5078254;28;19908;-83
2021/07/18 09:44:03;;;;;;;;;;;27.20;99.90;;;;;;5079317;28;19986;-84
2021/07/18 09:46:30;;;;;;;;;;;27.00;99.90;;;;;;5077039;28;20018;-83
2021/07/18 09:48:57;;;;;;;;;;;27.20;99.90;;;;;;5087778;28;19919;-85
2021/07/18 09:51:22;;;;;;;;;;;27.60;99.90;;;;;;5097611;28;19912;-82
2021/07/18 09:54:05;;;;;;;;;;;27.60;99.90;;;;;;5096626;28;20401;-81
2021/07/18 09:56:32;;;;;;;;;;;26.80;99.90;;;;;;5096915;28;19912;-82
2021/07/18 09:58:57;;;;;;;;;;;27.50;99.90;;;;;;5097626;28;19908;-83
2021/07/18 10:01:23;;;;;;;;;;;27.60;99.90;;;;;;5096867;28;20267;-85
2021/07/18 10:03:50;;;;;;;;;;;27.20;99.90;;;;;;5096678;28;20286;-80
2021/07/18 10:06:16;;;;;;;;;;;27.20;99.90;;;;;;5115558;28;19908;-82
2021/07/18 10:08:49;;;;;;;;;;;27.00;99.90;;;;;;5097348;28;19957;-81
2021/07/18 10:11:15;;;;;;;;;;;27.00;99.90;;;;;;5097585;28;19911;-84
2021/07/18 10:13:45;;;;;;;;;;;27.20;99.90;;;;;;5097008;28;19969;-81
2021/07/18 10:16:11;;;;;;;;;;;27.30;99.90;;;;;;5096757;28;19956;-85
2021/07/18 10:18:38;;;;;;;;;;;27.30;99.90;;;;;;5096620;28;19907;-83
2021/07/18 10:21:04;;;;;;;;;;;27.50;99.90;;;;;;5096903;28;19916;-83
2021/07/18 10:23:30;;;;;;;;;;;27.60;99.90;;;;;;5097453;28;20484;-83
2021/07/18 10:25:57;;;;;;;;;;;27.40;99.90;;;;;;5096726;28;19953;-82
2021/07/18 10:28:25;;;;;;;;;;;27.50;99.90;;;;;;5097227;28;20387;-83
2021/07/18 10:30:51;;;;;;;;;;;27.80;99.90;;;;;;5097123;28;19908;-83
2021/07/18 10:33:20;;;;;;;;;;;27.60;99.90;;;;;;5096680;28;20392;-85
2021/07/18 10:35:46;;;;;;;;;;;27.80;99.90;;;;;;5096604;28;19916;-83
2021/07/18 10:38:13;;;;;;;;;;;28.30;99.90;;;;;;5097224;28;19908;-85
2021/07/18 10:40:49;;;;;;;;;;;28.50;99.90;;;;;;5097124;28;19915;-83
2021/07/18 10:43:33;;;;;;;;;;;28.50;99.90;;;;;;5096855;28;20332;-85
2021/07/18 10:45:58;;;;;;;;;;;28.10;99.90;;;;;;5096489;28;19916;-81
2021/07/18 10:48:39;;;;;;;;;;;28.40;99.90;;;;;;5096383;28;19948;-80
2021/07/18 10:51:04;;;;;;;;;;;28.80;99.90;;;;;;5114852;28;19916;-83
2021/07/18 10:53:33;;;;;;;;;;;29.00;99.90;;;;;;5096621;28;20335;-82
2021/07/18 10:56:01;;;;;;;;;;;28.90;99.90;;;;;;5096902;28;20428;-82
2021/07/18 10:58:38;;;;;;;;;;;28.70;99.90;;;;;;5097384;28;20377;-81
2021/07/18 11:01:24;;;;;;;;;;;28.30;99.90;;;;;;5096853;28;19915;-83
2021/07/18 11:03:49;;;;;;;;;;;28.40;99.90;;;;;;5078636;28;19907;-85
2021/07/18 11:06:34;;;;;;;;;;;28.30;99.90;;;;;;5115175;28;19911;-83
2021/07/18 11:09:03;;;;;;;;;;;28.10;99.90;;;;;;5114646;28;19915;-84
2021/07/18 11:11:48;;;;;;;;;;;28.40;99.90;;;;;;5083382;28;20073;-81
2021/07/18 11:14:26;;;;;;;;;;;28.60;99.90;;;;;;5076096;28;20383;-84
2021/07/18 11:16:56;;;;;;;;;;;28.40;99.90;;;;;;5076850;28;19917;-82
2021/07/18 11:19:40;;;;;;;;;;;28.10;99.90;;;;;;5075582;28;19959;-81
2021/07/18 11:22:09;;;;;;;;;;;28.00;99.90;;;;;;5076204;28;20393;-85
2021/07/18 11:25:01;;;;;;;;;;;27.90;99.90;;;;;;5076488;28;19916;-82
2021/07/18 11:27:31;;;;;;;;;;;28.40;99.90;;;;;;5072597;28;19908;-83
2021/07/18 11:29:57;;;;;;;;;;;28.40;99.90;;;;;;5077011;28;20049;-83
2021/07/18 11:32:28;;;;;;;;;;;28.50;99.90;;;;;;5079102;28;20383;-85
2021/07/18 11:34:54;;;;;;;;;;;28.40;99.90;;;;;;5112924;28;19923;-85
2021/07/18 11:37:20;;;;;;;;;;;28.50;99.90;;;;;;5100088;28;19912;-83
2021/07/18 11:39:46;;;;;;;;;;;27.80;99.90;;;;;;5100252;28;19911;-84
2021/07/18 11:42:13;;;;;;;;;;;27.90;99.90;;;;;;5099233;28;19977;-80
2021/07/18 11:44:39;;;;;;;;;;;27.50;99.90;;;;;;5097125;28;20358;-81
2021/07/18 11:47:07;;;;;;;;;;;27.80;99.90;;;;;;5097359;28;19915;-81
2021/07/18 11:49:34;;;;;;;;;;;27.90;99.90;;;;;;5097443;28;19934;-81
2021/07/18 11:51:59;;;;;;;;;;;27.80;99.90;;;;;;5097627;28;19907;-82
2021/07/18 11:54:26;;;;;;;;;;;27.90;99.90;;;;;;5097489;28;20366;-82
2021/07/18 11:56:51;;;;;;;;;;;27.90;99.90;;;;;;5097967;28;19918;-83
2021/07/18 11:59:19;;;;;;;;;;;28.30;99.90;;;;;;5094055;28;19916;-81
2021/07/18 12:01:45;;;;;;;;;;;28.30;99.90;;;;;;5094965;28;19915;-81
2021/07/18 12:04:12;;;;;;;;;;;28.30;99.90;;;;;;5077127;28;19923;-82
2021/07/18 12:06:38;;;;;;;;;;;28.20;99.90;;;;;;5076697;28;20363;-83
2021/07/18 12:09:17;;;;;;;;;;;28.40;99.90;;;;;;5076985;28;19915;-80
2021/07/18 12:11:43;;;;;;;;;;;28.10;99.90;;;;;;5077159;28;19912;-79
2021/07/18 12:14:09;;;;;;;;;;;28.40;99.90;;;;;;5077398;28;19919;-80
2021/07/18 12:16:36;;;;;;;;;;;28.50;99.90;;;;;;5095427;28;19908;-79
2021/07/18 12:19:02;;;;;;;;;;;28.50;99.90;;;;;;5095535;28;20012;-80
2021/07/18 12:21:28;;;;;;;;;;;28.60;99.90;;;;;;5077979;28;20363;-81
2021/07/18 12:24:13;;;;;;;;;;;28.80;99.90;;;;;;5077147;28;19930;-81
2021/07/18 12:26:39;;;;;;;;;;;28.70;99.90;;;;;;5077797;28;19909;-81
2021/07/18 12:29:05;;;;;;;;;;;28.70;99.90;;;;;;5076400;28;19962;-79
2021/07/18 12:31:31;;;;;;;;;;;28.90;99.90;;;;;;5077198;28;19912;-81
2021/07/18 12:33:56;;;;;;;;;;;29.10;99.90;;;;;;5095712;28;20374;-82
2021/07/18 12:36:22;;;;;;;;;;;29.30;99.90;;;;;;5077740;28;19912;-82
2021/07/18 12:38:47;;;;;;;;;;;29.50;99.90;;;;;;5077554;28;20002;-81
2021/07/18 12:41:13;;;;;;;;;;;29.50;99.90;;;;;;5083593;28;19916;-82
2021/07/18 12:43:39;;;;;;;;;;;29.20;99.90;;;;;;5080658;28;19909;-80
2021/07/18 12:46:04;;;;;;;;;;;29.00;99.90;;;;;;5078156;28;19916;-84
2021/07/18 12:48:30;;;;;;;;;;;28.60;99.90;;;;;;5078095;28;19931;-82
2021/07/18 12:50:55;;;;;;;;;;;28.50;99.90;;;;;;5096308;28;19914;-80
2021/07/18 12:53:21;;;;;;;;;;;28.80;99.90;;;;;;5077616;28;20372;-82
2021/07/18 12:55:53;;;;;;;;;;;29.00;99.90;;;;;;5078202;28;19908;-80
2021/07/18 12:58:23;;;;;;;;;;;28.70;99.90;;;;;;5078056;28;19924;-79
2021/07/18 13:00:59;;;;;;;;;;;29.00;99.90;;;;;;5077940;28;19912;-81
2021/07/18 13:03:25;;;;;;;;;;;29.00;99.90;;;;;;5078292;28;19962;-81
2021/07/18 13:05:50;;;;;;;;;;;29.20;99.90;;;;;;5077936;28;19908;-83
2021/07/18 13:08:35;;;;;;;;;;;29.30;99.90;;;;;;5077437;28;19951;-80
2021/07/18 13:11:00;;;;;;;;;;;29.30;99.90;;;;;;5095165;28;19908;-80
2021/07/18 13:13:33;;;;;;;;;;;29.20;99.90;;;;;;5075348;28;20409;-80
2021/07/18 13:16:03;;;;;;;;;;;29.30;99.90;;;;;;5076586;28;20367;-82
2021/07/18 13:18:33;;;;;;;;;;;29.40;99.90;;;;;;5076734;28;19908;-80
2021/07/18 13:21:08;;;;;;;;;;;29.70;99.90;;;;;;5078697;28;20370;-80
2021/07/18 13:23:33;;;;;;;;;;;29.20;99.90;;;;;;5093548;28;19957;-84
2021/07/18 13:25:59;;;;;;;;;;;29.20;99.90;;;;;;5097717;28;20279;-81
2021/07/18 13:28:27;;;;;;;;;;;29.10;99.90;;;;;;5097610;28;19958;-80
2021/07/18 13:30:53;;;;;;;;;;;29.10;99.90;;;;;;5116461;28;19947;-81
2021/07/18 13:33:20;;;;;;;;;;;29.00;99.90;;;;;;5097049;28;19907;-82
2021/07/18 13:35:49;;;;;;;;;;;29.30;99.90;;;;;;5116362;28;20093;-84
2021/07/18 13:38:34;;;;;;;;;;;29.20;99.90;;;;;;5097452;28;19904;-81
2021/07/18 13:41:10;;;;;;;;;;;29.10;99.90;;;;;;5116183;28;19904;-82
2021/07/18 13:43:35;;;;;;;;;;;29.50;99.90;;;;;;5096846;28;19943;-82
2021/07/18 13:46:01;;;;;;;;;;;29.10;99.90;;;;;;5097694;28;20367;-82
2021/07/18 13:48:31;;;;;;;;;;;29.40;99.90;;;;;;5092938;28;20346;-80
2021/07/18 13:50:58;;;;;;;;;;;29.40;99.70;;;;;;5116255;28;19950;-79
2021/07/18 13:53:24;;;;;;;;;;;29.00;99.80;;;;;;5096708;28;19943;-80
2021/07/18 13:55:50;;;;;;;;;;;29.30;99.90;;;;;;5097166;28;19904;-79
2021/07/18 13:58:16;;;;;;;;;;;29.60;99.90;;;;;;5097187;28;19903;-78
2021/07/18 14:00:41;;;;;;;;;;;29.40;99.10;;;;;;5097039;28;19904;-80
2021/07/18 14:03:08;;;;;;;;;;;29.40;99.90;;;;;;5096897;28;19994;-80
2021/07/18 14:05:34;;;;;;;;;;;29.30;99.20;;;;;;5096873;28;19903;-79
2021/07/18 14:08:00;;;;;;;;;;;29.40;98.80;;;;;;5096506;28;20045;-78
2021/07/18 14:10:26;;;;;;;;;;;29.50;99.90;;;;;;5115885;28;19964;-79
2021/07/18 14:12:51;;;;;;;;;;;29.60;99.90;;;;;;5096936;28;20006;-82
2021/07/18 14:15:21;;;;;;;;;;;29.50;98.90;;;;;;5097148;28;19926;-82